sensor_id;sensor_type;location;lat;lon;timestamp;pressure;altitude;pressure_sealevel;temperature;humidity
80149;BME280;69473;42.426;26.644;2023-12-20T00:01:03;99424.41;;;2.19;88.58
80149;BME280;69473;42.426;26.644;2023-12-20T00:03:28;99421.88;;;2.20;89.04
80149;BME280;69473;42.426;26.644;2023-12-20T00:05:54;99410.78;;;2.20;88.36
80149;BME280;69473;42.426;26.644;2023-12-20T00:08:20;99412.19;;;2.12;88.55
80149;BME280;69473;42.426;26.644;2023-12-20T00:10:46;99412.53;;;2.21;89.87
80149;BME280;69473;42.426;26.644;2023-12-20T00:13:12;99412.88;;;2.30;89.42
80149;BME280;69473;42.426;26.644;2023-12-20T00:15:37;99411.13;;;2.29;88.83
80149;BME280;69473;42.426;26.644;2023-12-20T00:18:03;99405.91;;;2.26;88.89
80149;BME280;69473;42.426;26.644;2023-12-20T00:20:29;99413.84;;;2.10;89.27
80149;BME280;69473;42.426;26.644;2023-12-20T00:22:58;99411.53;;;2.17;90.55
80149;BME280;69473;42.426;26.644;2023-12-20T00:25:24;99414.06;;;2.16;89.49
80149;BME280;69473;42.426;26.644;2023-12-20T00:27:50;99413.59;;;2.03;90.10
80149;BME280;69473;42.426;26.644;2023-12-20T00:30:16;99410.34;;;2.07;90.20
80149;BME280;69473;42.426;26.644;2023-12-20T00:32:41;99410.34;;;2.07;89.50
80149;BME280;69473;42.426;26.644;2023-12-20T00:35:15;99405.69;;;1.97;89.64
80149;BME280;69473;42.426;26.644;2023-12-20T00:37:41;99408.25;;;1.97;90.22
80149;BME280;69473;42.426;26.644;2023-12-20T00:40:07;99403.84;;;1.93;90.70
80149;BME280;69473;42.426;26.644;2023-12-20T00:42:33;99401.59;;;2.02;91.21
80149;BME280;69473;42.426;26.644;2023-12-20T00:44:59;99387.91;;;2.00;90.73
80149;BME280;69473;42.426;26.644;2023-12-20T00:47:25;99391.28;;;1.99;91.41
80149;BME280;69473;42.426;26.644;2023-12-20T00:49:51;99386.28;;;2.02;91.37
80149;BME280;69473;42.426;26.644;2023-12-20T00:52:17;99381.16;;;2.02;91.27
80149;BME280;69473;42.426;26.644;2023-12-20T00:54:43;99382.84;;;2.02;91.08
80149;BME280;69473;42.426;26.644;2023-12-20T00:57:09;99378.41;;;1.96;91.01
80149;BME280;69473;42.426;26.644;2023-12-20T00:59:35;99380.72;;;1.90;90.92
80149;BME280;69473;42.426;26.644;2023-12-20T01:02:00;99377.47;;;1.94;90.88
80149;BME280;69473;42.426;26.644;2023-12-20T01:04:26;99374.31;;;2.01;90.45
80149;BME280;69473;42.426;26.644;2023-12-20T01:06:52;99370.75;;;1.96;90.64
80149;BME280;69473;42.426;26.644;2023-12-20T01:09:17;99368.13;;;1.95;91.01
80149;BME280;69473;42.426;26.644;2023-12-20T01:11:44;99355.41;;;1.96;91.46
80149;BME280;69473;42.426;26.644;2023-12-20T01:14:09;99357.88;;;1.95;91.59
80149;BME280;69473;42.426;26.644;2023-12-20T01:16:35;99361.19;;;1.92;91.18
80149;BME280;69473;42.426;26.644;2023-12-20T01:19:01;99354.41;;;1.93;91.17
80149;BME280;69473;42.426;26.644;2023-12-20T01:21:26;99351.31;;;2.01;91.14
80149;BME280;69473;42.426;26.644;2023-12-20T01:23:52;99350.59;;;2.05;90.43
80149;BME280;69473;42.426;26.644;2023-12-20T01:26:17;99354.09;;;2.07;89.72
80149;BME280;69473;42.426;26.644;2023-12-20T01:28:43;99337.03;;;2.06;89.57
80149;BME280;69473;42.426;26.644;2023-12-20T01:31:09;99344.63;;;2.05;88.66
80149;BME280;69473;42.426;26.644;2023-12-20T01:33:34;99338.19;;;1.92;89.10
80149;BME280;69473;42.426;26.644;2023-12-20T01:36:00;99334.03;;;1.94;89.47
80149;BME280;69473;42.426;26.644;2023-12-20T01:38:25;99331.56;;;1.97;90.29
80149;BME280;69473;42.426;26.644;2023-12-20T01:40:51;99324.81;;;1.99;89.67
80149;BME280;69473;42.426;26.644;2023-12-20T01:43:16;99327.97;;;1.92;90.74
80149;BME280;69473;42.426;26.644;2023-12-20T01:45:42;99326.34;;;1.94;91.18
80149;BME280;69473;42.426;26.644;2023-12-20T01:48:08;99322.75;;;1.89;90.00
80149;BME280;69473;42.426;26.644;2023-12-20T01:50:38;99307.94;;;1.80;89.65
80149;BME280;69473;42.426;26.644;2023-12-20T01:53:07;99314.84;;;1.83;89.87
80149;BME280;69473;42.426;26.644;2023-12-20T01:55:39;99308.84;;;1.81;89.17
80149;BME280;69473;42.426;26.644;2023-12-20T01:58:06;99308.59;;;1.75;89.82
80149;BME280;69473;42.426;26.644;2023-12-20T02:00:33;99303.50;;;1.75;90.30
80149;BME280;69473;42.426;26.644;2023-12-20T02:03:03;99300.25;;;1.79;89.65
80149;BME280;69473;42.426;26.644;2023-12-20T02:05:35;99295.34;;;1.85;90.32
80149;BME280;69473;42.426;26.644;2023-12-20T02:08:01;99287.84;;;1.90;89.76
80149;BME280;69473;42.426;26.644;2023-12-20T02:10:28;99277.69;;;1.91;89.80
80149;BME280;69473;42.426;26.644;2023-12-20T02:12:54;99278.75;;;1.96;89.57
80149;BME280;69473;42.426;26.644;2023-12-20T02:15:20;99277.56;;;1.88;89.06
80149;BME280;69473;42.426;26.644;2023-12-20T02:17:47;99272.25;;;1.82;89.78
80149;BME280;69473;42.426;26.644;2023-12-20T02:20:13;99279.38;;;1.91;89.61
80149;BME280;69473;42.426;26.644;2023-12-20T02:22:39;99271.75;;;1.92;90.04
80149;BME280;69473;42.426;26.644;2023-12-20T02:25:04;99270.75;;;1.87;88.98
80149;BME280;69473;42.426;26.644;2023-12-20T02:27:30;99262.97;;;1.84;88.81
80149;BME280;69473;42.426;26.644;2023-12-20T02:29:56;99260.75;;;1.71;88.97
80149;BME280;69473;42.426;26.644;2023-12-20T02:32:23;99258.09;;;1.45;88.93
80149;BME280;69473;42.426;26.644;2023-12-20T02:34:52;99254.72;;;1.46;89.50
80149;BME280;69473;42.426;26.644;2023-12-20T02:37:17;99253.34;;;1.54;88.97
80149;BME280;69473;42.426;26.644;2023-12-20T02:39:43;99248.47;;;1.60;89.19
80149;BME280;69473;42.426;26.644;2023-12-20T02:42:08;99244.34;;;1.64;88.30
80149;BME280;69473;42.426;26.644;2023-12-20T02:44:34;99250.91;;;1.57;87.93
80149;BME280;69473;42.426;26.644;2023-12-20T02:46:59;99242.16;;;1.51;88.51
80149;BME280;69473;42.426;26.644;2023-12-20T02:49:25;99241.41;;;1.53;88.08
80149;BME280;69473;42.426;26.644;2023-12-20T02:51:50;99237.78;;;1.48;88.13
80149;BME280;69473;42.426;26.644;2023-12-20T02:54:16;99238.28;;;1.38;87.65
80149;BME280;69473;42.426;26.644;2023-12-20T02:56:42;99234.66;;;1.33;87.61
80149;BME280;69473;42.426;26.644;2023-12-20T02:59:07;99235.50;;;1.32;87.45
80149;BME280;69473;42.426;26.644;2023-12-20T03:01:34;99231.53;;;1.40;88.63
80149;BME280;69473;42.426;26.644;2023-12-20T03:04:01;99233.44;;;1.46;88.01
80149;BME280;69473;42.426;26.644;2023-12-20T03:06:26;99232.56;;;1.45;87.77
80149;BME280;69473;42.426;26.644;2023-12-20T03:08:52;99221.25;;;1.38;88.10
80149;BME280;69473;42.426;26.644;2023-12-20T03:11:18;99226.38;;;1.38;87.48
80149;BME280;69473;42.426;26.644;2023-12-20T03:13:43;99226.66;;;1.24;87.48
80149;BME280;69473;42.426;26.644;2023-12-20T03:16:10;99221.19;;;1.14;88.19
80149;BME280;69473;42.426;26.644;2023-12-20T03:18:36;99221.31;;;1.18;87.40
80149;BME280;69473;42.426;26.644;2023-12-20T03:21:02;99216.97;;;1.15;87.63
80149;BME280;69473;42.426;26.644;2023-12-20T03:23:27;99220.97;;;1.08;88.09
80149;BME280;69473;42.426;26.644;2023-12-20T03:25:53;99217.50;;;1.06;88.37
80149;BME280;69473;42.426;26.644;2023-12-20T03:28:18;99213.38;;;1.10;87.61
80149;BME280;69473;42.426;26.644;2023-12-20T03:30:45;99213.53;;;1.14;87.65
80149;BME280;69473;42.426;26.644;2023-12-20T03:33:10;99209.91;;;1.08;87.69
80149;BME280;69473;42.426;26.644;2023-12-20T03:35:36;99203.81;;;1.04;86.50
80149;BME280;69473;42.426;26.644;2023-12-20T03:38:02;99204.78;;;1.08;87.63
80149;BME280;69473;42.426;26.644;2023-12-20T03:40:28;99195.44;;;1.08;87.34
80149;BME280;69473;42.426;26.644;2023-12-20T03:42:53;99199.34;;;0.99;88.65
80149;BME280;69473;42.426;26.644;2023-12-20T03:45:19;99205.41;;;1.02;89.18
80149;BME280;69473;42.426;26.644;2023-12-20T03:47:44;99198.72;;;1.04;89.27
80149;BME280;69473;42.426;26.644;2023-12-20T03:50:10;99188.03;;;0.92;89.29
80149;BME280;69473;42.426;26.644;2023-12-20T03:52:36;99183.63;;;0.88;89.55
80149;BME280;69473;42.426;26.644;2023-12-20T03:55:01;99185.19;;;0.84;88.69
80149;BME280;69473;42.426;26.644;2023-12-20T03:57:27;99189.53;;;0.87;89.21
80149;BME280;69473;42.426;26.644;2023-12-20T03:59:52;99188.03;;;0.92;89.41
80149;BME280;69473;42.426;26.644;2023-12-20T04:02:18;99180.72;;;0.79;89.73
80149;BME280;69473;42.426;26.644;2023-12-20T04:04:43;99184.06;;;0.78;89.81
80149;BME280;69473;42.426;26.644;2023-12-20T04:07:09;99175.16;;;0.89;90.14
80149;BME280;69473;42.426;26.644;2023-12-20T04:09:34;99182.94;;;0.92;89.09
80149;BME280;69473;42.426;26.644;2023-12-20T04:12:00;99178.44;;;0.86;89.72
80149;BME280;69473;42.426;26.644;2023-12-20T04:14:25;99172.25;;;0.80;89.73
80149;BME280;69473;42.426;26.644;2023-12-20T04:16:52;99171.44;;;0.81;89.38
80149;BME280;69473;42.426;26.644;2023-12-20T04:19:17;99172.00;;;0.74;89.61
80149;BME280;69473;42.426;26.644;2023-12-20T04:21:43;99169.91;;;0.63;88.82
80149;BME280;69473;42.426;26.644;2023-12-20T04:24:08;99167.41;;;0.65;89.32
80149;BME280;69473;42.426;26.644;2023-12-20T04:26:34;99165.84;;;0.68;89.33
80149;BME280;69473;42.426;26.644;2023-12-20T04:29:00;99169.53;;;0.75;89.72
80149;BME280;69473;42.426;26.644;2023-12-20T04:31:25;99171.31;;;0.78;90.80
80149;BME280;69473;42.426;26.644;2023-12-20T04:33:51;99168.94;;;0.82;89.98
80149;BME280;69473;42.426;26.644;2023-12-20T04:36:16;99168.00;;;0.80;90.01
80149;BME280;69473;42.426;26.644;2023-12-20T04:38:42;99176.38;;;0.76;89.32
80149;BME280;69473;42.426;26.644;2023-12-20T04:41:07;99173.50;;;0.68;89.56
80149;BME280;69473;42.426;26.644;2023-12-20T04:43:33;99168.31;;;0.65;90.34
80149;BME280;69473;42.426;26.644;2023-12-20T04:45:58;99169.22;;;0.67;91.06
80149;BME280;69473;42.426;26.644;2023-12-20T04:48:24;99163.41;;;0.72;91.16
80149;BME280;69473;42.426;26.644;2023-12-20T04:50:50;99167.84;;;0.76;92.24
80149;BME280;69473;42.426;26.644;2023-12-20T04:53:15;99168.13;;;0.83;91.78
80149;BME280;69473;42.426;26.644;2023-12-20T04:55:41;99157.94;;;0.83;91.71
80149;BME280;69473;42.426;26.644;2023-12-20T04:58:06;99160.19;;;0.76;92.09
80149;BME280;69473;42.426;26.644;2023-12-20T05:00:32;99155.88;;;0.75;91.85
80149;BME280;69473;42.426;26.644;2023-12-20T05:02:57;99159.25;;;0.74;91.61
80149;BME280;69473;42.426;26.644;2023-12-20T05:05:23;99159.09;;;0.69;90.97
80149;BME280;69473;42.426;26.644;2023-12-20T05:07:48;99163.22;;;0.65;90.84
80149;BME280;69473;42.426;26.644;2023-12-20T05:10:14;99156.09;;;0.58;91.20
80149;BME280;69473;42.426;26.644;2023-12-20T05:12:40;99159.47;;;0.57;90.43
80149;BME280;69473;42.426;26.644;2023-12-20T05:15:06;99162.84;;;0.56;90.84
80149;BME280;69473;42.426;26.644;2023-12-20T05:17:32;99160.84;;;0.49;90.80
80149;BME280;69473;42.426;26.644;2023-12-20T05:19:58;99164.22;;;0.48;90.94
80149;BME280;69473;42.426;26.644;2023-12-20T05:22:24;99159.94;;;0.47;91.04
80149;BME280;69473;42.426;26.644;2023-12-20T05:24:49;99160.06;;;0.50;91.23
80149;BME280;69473;42.426;26.644;2023-12-20T05:27:15;99160.84;;;0.49;92.01
80149;BME280;69473;42.426;26.644;2023-12-20T05:29:40;99158.38;;;0.51;91.93
80149;BME280;69473;42.426;26.644;2023-12-20T05:32:06;99149.03;;;0.51;92.70
80149;BME280;69473;42.426;26.644;2023-12-20T05:34:32;99149.28;;;0.57;93.62
80149;BME280;69473;42.426;26.644;2023-12-20T05:36:58;99144.28;;;0.60;93.76
80149;BME280;69473;42.426;26.644;2023-12-20T05:39:23;99145.97;;;0.60;93.44
80149;BME280;69473;42.426;26.644;2023-12-20T05:41:49;99149.50;;;0.63;93.94
80149;BME280;69473;42.426;26.644;2023-12-20T05:44:15;99151.38;;;0.67;94.49
80149;BME280;69473;42.426;26.644;2023-12-20T05:46:40;99152.75;;;0.59;93.24
80149;BME280;69473;42.426;26.644;2023-12-20T05:49:07;99147.78;;;0.62;92.76
80149;BME280;69473;42.426;26.644;2023-12-20T05:51:33;99136.75;;;0.63;92.49
80149;BME280;69473;42.426;26.644;2023-12-20T05:53:58;99139.47;;;0.68;93.03
80149;BME280;69473;42.426;26.644;2023-12-20T05:56:24;99139.56;;;0.69;93.16
80149;BME280;69473;42.426;26.644;2023-12-20T05:58:50;99131.91;;;0.69;92.58
80149;BME280;69473;42.426;26.644;2023-12-20T06:01:16;99126.44;;;0.83;91.82
80149;BME280;69473;42.426;26.644;2023-12-20T06:03:44;99125.28;;;0.97;90.46
80149;BME280;69473;42.426;26.644;2023-12-20T06:06:11;99120.06;;;1.17;89.89
80149;BME280;69473;42.426;26.644;2023-12-20T06:08:38;99129.34;;;1.38;89.27
80149;BME280;69473;42.426;26.644;2023-12-20T06:11:04;99127.38;;;1.55;87.73
80149;BME280;69473;42.426;26.644;2023-12-20T06:13:31;99120.63;;;1.81;86.69
80149;BME280;69473;42.426;26.644;2023-12-20T06:15:57;99120.34;;;1.99;85.32
80149;BME280;69473;42.426;26.644;2023-12-20T06:18:23;99113.94;;;2.11;85.91
80149;BME280;69473;42.426;26.644;2023-12-20T06:20:49;99133.06;;;2.22;83.66
80149;BME280;69473;42.426;26.644;2023-12-20T06:23:15;99126.88;;;2.42;84.27
80149;BME280;69473;42.426;26.644;2023-12-20T06:25:41;99123.28;;;2.64;83.74
80149;BME280;69473;42.426;26.644;2023-12-20T06:28:06;99124.13;;;2.92;82.36
80149;BME280;69473;42.426;26.644;2023-12-20T06:30:32;99127.19;;;3.09;81.21
80149;BME280;69473;42.426;26.644;2023-12-20T06:32:58;99115.91;;;3.32;80.13
80149;BME280;69473;42.426;26.644;2023-12-20T06:35:24;99118.94;;;3.49;79.41
80149;BME280;69473;42.426;26.644;2023-12-20T06:37:50;99112.09;;;3.81;79.31
80149;BME280;69473;42.426;26.644;2023-12-20T06:40:15;99107.75;;;4.12;79.90
80149;BME280;69473;42.426;26.644;2023-12-20T06:42:42;99107.50;;;4.37;78.47
80149;BME280;69473;42.426;26.644;2023-12-20T06:45:08;99100.16;;;4.53;80.01
80149;BME280;69473;42.426;26.644;2023-12-20T06:47:34;99097.22;;;4.74;79.09
80149;BME280;69473;42.426;26.644;2023-12-20T06:50:00;99095.94;;;4.93;78.02
80149;BME280;69473;42.426;26.644;2023-12-20T06:52:26;99082.69;;;5.15;78.10
80149;BME280;69473;42.426;26.644;2023-12-20T06:54:52;99085.75;;;5.40;77.88
80149;BME280;69473;42.426;26.644;2023-12-20T06:57:17;99079.31;;;5.63;78.32
80149;BME280;69473;42.426;26.644;2023-12-20T06:59:45;99069.59;;;5.94;76.39
80149;BME280;69473;42.426;26.644;2023-12-20T07:02:10;99074.31;;;6.19;76.48
80149;BME280;69473;42.426;26.644;2023-12-20T07:04:39;99065.34;;;6.49;75.61
80149;BME280;69473;42.426;26.644;2023-12-20T07:07:05;99070.03;;;6.78;74.76
80149;BME280;69473;42.426;26.644;2023-12-20T07:09:32;99054.81;;;6.96;74.03
80149;BME280;69473;42.426;26.644;2023-12-20T07:11:58;99052.59;;;7.28;72.75
80149;BME280;69473;42.426;26.644;2023-12-20T07:14:23;99062.94;;;8.17;70.43
80149;BME280;69473;42.426;26.644;2023-12-20T07:16:49;99059.50;;;8.21;68.53
80149;BME280;69473;42.426;26.644;2023-12-20T07:19:15;99057.81;;;8.23;67.73
80149;BME280;69473;42.426;26.644;2023-12-20T07:21:40;99064.13;;;8.62;66.57
80149;BME280;69473;42.426;26.644;2023-12-20T07:24:06;99044.75;;;10.60;61.55
80149;BME280;69473;42.426;26.644;2023-12-20T07:26:31;99043.09;;;12.16;54.07
80149;BME280;69473;42.426;26.644;2023-12-20T07:28:57;99035.13;;;13.11;52.00
80149;BME280;69473;42.426;26.644;2023-12-20T07:31:24;99034.41;;;14.24;48.21
80149;BME280;69473;42.426;26.644;2023-12-20T07:33:49;99032.59;;;13.75;48.14
80149;BME280;69473;42.426;26.644;2023-12-20T07:36:15;99034.41;;;12.17;51.55
80149;BME280;69473;42.426;26.644;2023-12-20T07:38:40;99023.25;;;15.51;45.82
80149;BME280;69473;42.426;26.644;2023-12-20T07:41:09;99022.16;;;18.40;38.38
80149;BME280;69473;42.426;26.644;2023-12-20T07:43:36;99023.56;;;20.35;34.99
80149;BME280;69473;42.426;26.644;2023-12-20T07:46:08;99023.50;;;21.17;33.18
80149;BME280;69473;42.426;26.644;2023-12-20T07:48:37;99015.91;;;22.04;31.04
80149;BME280;69473;42.426;26.644;2023-12-20T07:51:04;99019.06;;;22.29;30.93
80149;BME280;69473;42.426;26.644;2023-12-20T07:53:31;99013.47;;;22.53;29.81
80149;BME280;69473;42.426;26.644;2023-12-20T07:55:56;99015.81;;;23.25;28.86
80149;BME280;69473;42.426;26.644;2023-12-20T07:58:22;99016.28;;;23.65;28.04
80149;BME280;69473;42.426;26.644;2023-12-20T08:00:47;99006.94;;;24.36;27.95
80149;BME280;69473;42.426;26.644;2023-12-20T08:03:13;99007.34;;;25.03;26.95
80149;BME280;69473;42.426;26.644;2023-12-20T08:05:39;99007.63;;;24.84;26.75
80149;BME280;69473;42.426;26.644;2023-12-20T08:08:06;99014.28;;;24.47;26.56
80149;BME280;69473;42.426;26.644;2023-12-20T08:10:32;99007.00;;;24.50;26.85
80149;BME280;69473;42.426;26.644;2023-12-20T08:12:57;99011.59;;;25.05;25.76
80149;BME280;69473;42.426;26.644;2023-12-20T08:15:23;98998.91;;;25.39;25.53
80149;BME280;69473;42.426;26.644;2023-12-20T08:17:49;98999.38;;;25.46;25.29
80149;BME280;69473;42.426;26.644;2023-12-20T08:20:16;98991.72;;;26.35;24.89
80149;BME280;69473;42.426;26.644;2023-12-20T08:22:42;98988.97;;;25.84;24.75
80149;BME280;69473;42.426;26.644;2023-12-20T08:25:08;98984.94;;;26.31;24.33
80149;BME280;69473;42.426;26.644;2023-12-20T08:27:39;98983.34;;;26.41;24.19
80149;BME280;69473;42.426;26.644;2023-12-20T08:30:05;98974.31;;;26.31;24.04
80149;BME280;69473;42.426;26.644;2023-12-20T08:32:31;98973.84;;;26.90;23.76
80149;BME280;69473;42.426;26.644;2023-12-20T08:34:57;98980.34;;;27.72;22.43
80149;BME280;69473;42.426;26.644;2023-12-20T08:37:23;98966.34;;;27.33;22.75
80149;BME280;69473;42.426;26.644;2023-12-20T08:39:49;98967.03;;;26.99;22.90
80149;BME280;69473;42.426;26.644;2023-12-20T08:42:14;98961.06;;;27.81;22.66
80149;BME280;69473;42.426;26.644;2023-12-20T08:44:40;98959.97;;;28.08;22.42
80149;BME280;69473;42.426;26.644;2023-12-20T08:47:05;98957.88;;;27.76;22.44
80149;BME280;69473;42.426;26.644;2023-12-20T08:49:31;98949.41;;;28.06;22.09
80149;BME280;69473;42.426;26.644;2023-12-20T08:51:56;98948.50;;;28.54;21.73
80149;BME280;69473;42.426;26.644;2023-12-20T08:54:22;98925.25;;;28.78;21.10
80149;BME280;69473;42.426;26.644;2023-12-20T08:56:48;98921.94;;;28.41;22.03
80149;BME280;69473;42.426;26.644;2023-12-20T08:59:13;98908.28;;;28.80;21.69
80149;BME280;69473;42.426;26.644;2023-12-20T09:01:39;98910.91;;;29.24;20.98
80149;BME280;69473;42.426;26.644;2023-12-20T09:04:05;98910.25;;;30.08;19.54
80149;BME280;69473;42.426;26.644;2023-12-20T09:06:31;98899.13;;;30.24;19.51
80149;BME280;69473;42.426;26.644;2023-12-20T09:08:57;98900.81;;;30.25;20.26
80149;BME280;69473;42.426;26.644;2023-12-20T09:11:22;98894.53;;;30.56;20.05
80149;BME280;69473;42.426;26.644;2023-12-20T09:13:48;98889.72;;;30.81;20.04
80149;BME280;69473;42.426;26.644;2023-12-20T09:16:14;98879.94;;;30.19;19.64
80149;BME280;69473;42.426;26.644;2023-12-20T09:18:41;98874.84;;;30.15;19.52
80149;BME280;69473;42.426;26.644;2023-12-20T09:21:07;98877.69;;;30.66;19.02
80149;BME280;69473;42.426;26.644;2023-12-20T09:23:33;98870.47;;;30.87;19.02
80149;BME280;69473;42.426;26.644;2023-12-20T09:25:59;98875.72;;;30.98;19.38
80149;BME280;69473;42.426;26.644;2023-12-20T09:28:24;98869.34;;;30.90;18.80
80149;BME280;69473;42.426;26.644;2023-12-20T09:30:50;98866.97;;;31.66;17.95
80149;BME280;69473;42.426;26.644;2023-12-20T09:33:15;98867.41;;;31.01;18.46
80149;BME280;69473;42.426;26.644;2023-12-20T09:35:42;98851.38;;;31.01;18.64
80149;BME280;69473;42.426;26.644;2023-12-20T09:38:07;98849.41;;;31.03;18.73
80149;BME280;69473;42.426;26.644;2023-12-20T09:40:34;98847.03;;;31.20;18.46
80149;BME280;69473;42.426;26.644;2023-12-20T09:43:10;98841.38;;;31.03;18.98
80149;BME280;69473;42.426;26.644;2023-12-20T09:45:36;98838.44;;;31.26;18.93
80149;BME280;69473;42.426;26.644;2023-12-20T09:48:03;98832.84;;;31.68;18.25
80149;BME280;69473;42.426;26.644;2023-12-20T09:50:30;98826.19;;;30.64;18.50
80149;BME280;69473;42.426;26.644;2023-12-20T09:52:58;98823.13;;;29.75;20.00
80149;BME280;69473;42.426;26.644;2023-12-20T09:55:25;98821.31;;;29.96;19.22
80149;BME280;69473;42.426;26.644;2023-12-20T09:57:52;98817.91;;;27.02;22.17
80149;BME280;69473;42.426;26.644;2023-12-20T10:00:18;98824.72;;;23.23;27.37
80149;BME280;69473;42.426;26.644;2023-12-20T10:03:09;98823.94;;;20.65;30.30
80149;BME280;69473;42.426;26.644;2023-12-20T10:05:36;98821.44;;;19.21;33.01
80149;BME280;69473;42.426;26.644;2023-12-20T10:18:55;98812.41;;;16.83;38.30
80149;BME280;69473;42.426;26.644;2023-12-20T10:21:22;98813.50;;;20.64;31.52
80149;BME280;69473;42.426;26.644;2023-12-20T10:23:48;98785.84;;;25.26;25.79
80149;BME280;69473;42.426;26.644;2023-12-20T10:26:20;98773.03;;;27.45;22.33
80149;BME280;69473;42.426;26.644;2023-12-20T10:28:50;98769.59;;;29.55;20.34
80149;BME280;69473;42.426;26.644;2023-12-20T10:31:33;98768.25;;;30.83;17.99
80149;BME280;69473;42.426;26.644;2023-12-20T10:34:01;98760.81;;;31.65;17.88
80149;BME280;69473;42.426;26.644;2023-12-20T10:36:30;98756.41;;;32.03;17.80
80149;BME280;69473;42.426;26.644;2023-12-20T10:38:57;98751.31;;;31.90;17.27
80149;BME280;69473;42.426;26.644;2023-12-20T10:41:29;98752.69;;;27.91;20.78
80149;BME280;69473;42.426;26.644;2023-12-20T10:44:00;98753.59;;;30.78;18.80
80149;BME280;69473;42.426;26.644;2023-12-20T10:46:27;98748.06;;;31.86;17.59
80149;BME280;69473;42.426;26.644;2023-12-20T10:48:57;98747.94;;;31.97;17.12
80149;BME280;69473;42.426;26.644;2023-12-20T10:51:24;98740.03;;;33.24;16.50
80149;BME280;69473;42.426;26.644;2023-12-20T10:53:53;98741.59;;;33.09;16.20
80149;BME280;69473;42.426;26.644;2023-12-20T10:56:19;98732.50;;;33.10;16.12
80149;BME280;69473;42.426;26.644;2023-12-20T10:58:46;98737.34;;;32.33;16.60
80149;BME280;69473;42.426;26.644;2023-12-20T11:01:14;98730.56;;;32.84;16.66
80149;BME280;69473;42.426;26.644;2023-12-20T11:03:46;98734.06;;;27.09;21.75
80149;BME280;69473;42.426;26.644;2023-12-20T11:06:33;98730.31;;;30.19;19.04
80149;BME280;69473;42.426;26.644;2023-12-20T11:14:51;98723.47;;;29.95;19.61
80149;BME280;69473;42.426;26.644;2023-12-20T11:17:17;98712.81;;;29.11;21.13
80149;BME280;69473;42.426;26.644;2023-12-20T11:22:20;98704.84;;;24.68;24.78
80149;BME280;69473;42.426;26.644;2023-12-20T11:24:47;98697.06;;;25.19;25.77
80149;BME280;69473;42.426;26.644;2023-12-20T11:27:14;98686.56;;;27.51;23.50
80149;BME280;69473;42.426;26.644;2023-12-20T11:29:40;98693.38;;;26.11;23.94
80149;BME280;69473;42.426;26.644;2023-12-20T11:37:40;98671.38;;;30.60;20.50
80149;BME280;69473;42.426;26.644;2023-12-20T11:40:11;98663.69;;;32.37;17.58
80149;BME280;69473;42.426;26.644;2023-12-20T11:42:41;98652.47;;;31.96;18.50
80149;BME280;69473;42.426;26.644;2023-12-20T11:45:19;98646.91;;;31.14;19.21
80149;BME280;69473;42.426;26.644;2023-12-20T11:47:48;98650.56;;;30.93;18.56
80149;BME280;69473;42.426;26.644;2023-12-20T11:50:16;98642.22;;;31.82;18.14
80149;BME280;69473;42.426;26.644;2023-12-20T11:52:41;98633.84;;;32.68;17.64
80149;BME280;69473;42.426;26.644;2023-12-20T11:55:07;98637.97;;;32.80;17.55
80149;BME280;69473;42.426;26.644;2023-12-20T11:57:33;98638.06;;;31.60;18.61
80149;BME280;69473;42.426;26.644;2023-12-20T11:59:59;98623.25;;;31.19;18.93
80149;BME280;69473;42.426;26.644;2023-12-20T12:02:25;98629.63;;;32.20;18.33
80149;BME280;69473;42.426;26.644;2023-12-20T12:04:51;98618.81;;;31.84;18.68
80149;BME280;69473;42.426;26.644;2023-12-20T12:07:17;98616.81;;;31.86;18.74
80149;BME280;69473;42.426;26.644;2023-12-20T12:09:43;98609.44;;;32.26;18.12
80149;BME280;69473;42.426;26.644;2023-12-20T12:12:11;98605.59;;;31.73;18.80
80149;BME280;69473;42.426;26.644;2023-12-20T12:14:37;98601.53;;;31.22;18.62
80149;BME280;69473;42.426;26.644;2023-12-20T12:17:04;98598.19;;;30.81;19.56
80149;BME280;69473;42.426;26.644;2023-12-20T12:19:30;98595.13;;;30.56;20.14
80149;BME280;69473;42.426;26.644;2023-12-20T12:22:05;98592.13;;;24.89;25.65
80149;BME280;69473;42.426;26.644;2023-12-20T12:24:36;98597.53;;;20.84;32.20
80149;BME280;69473;42.426;26.644;2023-12-20T12:27:02;98603.44;;;18.37;37.23
80149;BME280;69473;42.426;26.644;2023-12-20T12:29:29;98598.94;;;17.50;38.38
80149;BME280;69473;42.426;26.644;2023-12-20T12:31:55;98595.94;;;16.35;41.69
80149;BME280;69473;42.426;26.644;2023-12-20T12:34:21;98588.06;;;16.09;42.68
80149;BME280;69473;42.426;26.644;2023-12-20T12:36:48;98585.78;;;15.70;43.09
80149;BME280;69473;42.426;26.644;2023-12-20T12:39:14;98577.56;;;15.53;44.36
80149;BME280;69473;42.426;26.644;2023-12-20T12:41:42;98584.47;;;15.54;45.02
80149;BME280;69473;42.426;26.644;2023-12-20T12:44:08;98577.50;;;14.93;44.88
80149;BME280;69473;42.426;26.644;2023-12-20T12:46:34;98578.44;;;14.91;46.13
80149;BME280;69473;42.426;26.644;2023-12-20T12:49:00;98580.69;;;15.05;45.65
80149;BME280;69473;42.426;26.644;2023-12-20T12:51:25;98575.97;;;14.86;46.83
80149;BME280;69473;42.426;26.644;2023-12-20T12:53:51;98576.59;;;14.62;48.68
80149;BME280;69473;42.426;26.644;2023-12-20T12:56:17;98568.22;;;14.47;48.30
80149;BME280;69473;42.426;26.644;2023-12-20T12:58:43;98568.59;;;14.32;47.83
80149;BME280;69473;42.426;26.644;2023-12-20T13:01:09;98569.75;;;14.22;47.92
80149;BME280;69473;42.426;26.644;2023-12-20T13:03:35;98567.63;;;14.00;49.87
80149;BME280;69473;42.426;26.644;2023-12-20T13:06:00;98562.72;;;13.88;50.02
80149;BME280;69473;42.426;26.644;2023-12-20T13:08:27;98570.06;;;13.71;50.45
80149;BME280;69473;42.426;26.644;2023-12-20T13:10:52;98564.94;;;13.68;49.52
80149;BME280;69473;42.426;26.644;2023-12-20T13:13:18;98568.66;;;13.54;50.48
80149;BME280;69473;42.426;26.644;2023-12-20T13:15:43;98569.00;;;13.39;51.33